Data ze zpráv METAR

Na této stránce "Data ze zpráv METAR" si můžete prohlédnout aktuální data o počasí z českých letišť.

LKKB - Kbely, Czech Republic
Distance from station: JJZ 98km
Aktualizováno v: 25/04/2018 23:00
Jasno
Jasno
 Vítr od ZJZ
Vítr: ZJZ 7 km/h
Teplota vzduchu: 12°C
Rosný bod: 8°C
Vlhkost: 77%
Tlak vzduchu: 1013 hPa
Souhrn: Jasno
Visibility: greater than 10 km
2018/04/25 21:00 LKKB 252100Z 25004KT 230V340 CAVOK 12/08 Q1013
LKPR - Prague/Ruzyne, Czech Republic
Distance from station: JJZ 108km
Aktualizováno v: 25/04/2018 23:30
Jasno
Jasno
 Vítr od JJZ
Vítr: JJZ 6 km/h
Teplota vzduchu: 10°C
Rosný bod: 8°C
Vlhkost: 88%
Tlak vzduchu: 1013 hPa
Souhrn: Jasno
Visibility: greater than 10 km
2018/04/25 21:30 LKPR 252130Z 20003KT CAVOK 10/08 Q1013 NOSIG
 
LKPD - Pardubice, Czech Republic
Distance from station: JJV 111km
Aktualizováno v: 25/04/2018 23:00
Jasno
Jasno
 Vítr od Z
Vítr: Z 13 km/h
Teplota vzduchu: 13°C
Rosný bod: 8°C
Vlhkost: 72%
Tlak vzduchu: 1012 hPa
Souhrn: Jasno
Visibility: greater than 10 km
2018/04/25 21:00 LKPD 252100Z 27007KT CAVOK 13/08 Q1012
LKCV - Caslav, Czech Republic
Distance from station: JJV 113km
Aktualizováno v: 25/04/2018 23:00
Jasno
Jasno
 Vítr od Z
Vítr: Z 13 km/h
Teplota vzduchu: 11°C
Rosný bod: 8°C
Vlhkost: 82%
Tlak vzduchu: 1012 hPa
Souhrn: Jasno
Visibility: greater than 10 km
2018/04/25 21:00 LKCV 252100Z 28007KT CAVOK 11/08 Q1012 RMK BLACK
 
LKKV - Karlovy Vary, Czech Republic
Distance from station: ZJZ 173km
Aktualizováno v: 25/04/2018 23:00
Oblačno
Oblačno
 Vítr od varies
Vítr: varies 4 km/h
Teplota vzduchu: 9°C
Rosný bod: 7°C
Vlhkost: 87%
Tlak vzduchu: 1013 hPa
Clouds: Oblačno
Visibility: 10 km
Cloud details: Oblačno 1372 m
2018/04/25 21:00 LKKV 252100Z VRB02KT 9999 BKN045 09/07 Q1013
LKLN - Plzen Line, Czech Republic
Distance from station: JZ 189km
Aktualizováno v: 25/04/2018 23:00
Few Clouds
Few Clouds
 Vítr od varies
Vítr: varies 4 km/h
Teplota vzduchu: 13°C
Rosný bod: 7°C
Vlhkost: 67%
Tlak vzduchu: 1013 hPa
Clouds: Few Clouds
Visibility: 10 km
Cloud details: Few Clouds 2804 m
2018/04/25 21:00 LKLN 252100Z AUTO VRB02KT 9999 FEW092 13/07 Q1013
 
LKNA - Namest, Czech Republic
Distance from station: JJV 209km
Aktualizováno v: 25/04/2018 23:00
Jasno
Jasno
 Vítr od ZSZ
Vítr: ZSZ 17 km/h
Teplota vzduchu: 13°C
Rosný bod: 8°C
Vlhkost: 72%
Tlak vzduchu: 1012 hPa
Souhrn: Jasno
Visibility: greater than 10 km
2018/04/25 21:00 LKNA 252100Z 29009KT CAVOK 13/08 Q1012 RMK BLU
LKTB - Brno/Turany, Czech Republic
Distance from station: JJV 230km
Aktualizováno v: 25/04/2018 23:30
Jasno
Jasno
 Vítr od ZSZ
Vítr: ZSZ 6 km/h
Teplota vzduchu: 17°C
Rosný bod: 10°C
Vlhkost: 64%
Tlak vzduchu: 1011 hPa
Souhrn: Jasno
Visibility: greater than 10 km
2018/04/25 21:30 LKTB 252130Z 30003KT 280V340 CAVOK 17/10 Q1011 NOSIG